Terminal Aerodrome Forecast
Issued by NWS Cleveland, OH

Home | Current Version | Previous Version | Graphics & Text | Print | Product List | Glossary On
Versions: 1 2 3 4 5 6 7 8 9 10 11 12 13 14 15 16 17
333
FTUS41 KCLE 160529
TAFCAK
TAF
KCAK 160529Z 1606/1706 00000KT P6SM FEW250
     FM161000 00000KT 3SM BR SCT050
      TEMPO 1611/1613 1 1/2SM BR
     FM161400 00000KT P6SM SCT050
     FM162300 VRB03KT P6SM SCT150=

USA.gov is the U.S. government's official web portal to all federal, state and local government web resources and services.